createdAt,value
2022-10-20T00:01:57.688Z,4.39
2022-10-20T00:04:24.407Z,4.37
2022-10-20T00:06:51.096Z,4.34
2022-10-20T00:09:17.657Z,4.30
2022-10-20T00:11:46.041Z,4.27
2022-10-20T00:14:13.103Z,4.26
2022-10-20T00:16:40.915Z,4.25
2022-10-20T00:19:11.867Z,4.24
2022-10-20T00:21:40.515Z,4.19
2022-10-20T00:24:07.147Z,4.18
2022-10-20T00:26:33.988Z,4.13
2022-10-20T00:29:02.566Z,4.10
2022-10-20T00:31:29.524Z,4.06
2022-10-20T00:33:56.204Z,4.03
2022-10-20T00:36:25.779Z,3.99
2022-10-20T00:38:59.284Z,3.94
2022-10-20T00:41:29.743Z,3.92
2022-10-20T00:44:02.032Z,3.88
2022-10-20T00:46:40.747Z,3.86
2022-10-20T00:49:22.079Z,3.85
2022-10-20T00:51:49.922Z,3.85
2022-10-20T00:54:19.499Z,3.83
2022-10-20T00:56:50.006Z,3.83
2022-10-20T00:59:21.849Z,3.83
2022-10-20T01:01:51.840Z,3.83
2022-10-20T01:04:19.074Z,3.82
2022-10-20T01:06:45.649Z,3.82
2022-10-20T01:09:12.546Z,3.82
2022-10-20T01:11:52.877Z,3.78
2022-10-20T01:14:29.403Z,3.77
2022-10-20T01:17:02.080Z,3.72
2022-10-20T01:19:31.283Z,3.71
2022-10-20T01:22:20.627Z,3.68
2022-10-20T01:25:05.522Z,3.68
2022-10-20T01:27:36.563Z,3.67
2022-10-20T01:30:17.824Z,3.66
2022-10-20T01:32:55.311Z,3.65
2022-10-20T01:35:25.560Z,3.63
2022-10-20T01:38:04.757Z,3.60
2022-10-20T01:40:46.438Z,3.59
2022-10-20T01:43:16.765Z,3.55
2022-10-20T01:45:48.305Z,3.52
2022-10-20T01:48:19.989Z,3.49
2022-10-20T01:51:03.853Z,3.46
2022-10-20T01:53:30.955Z,3.45
2022-10-20T01:56:00.010Z,3.43
2022-10-20T01:58:29.477Z,3.42
2022-10-20T02:01:20.632Z,3.39
2022-10-20T02:04:03.254Z,3.36
2022-10-20T02:06:54.242Z,3.33
2022-10-20T02:09:39.356Z,3.31
2022-10-20T02:12:21.553Z,3.30
2022-10-20T02:14:48.770Z,3.25
2022-10-20T02:17:18.743Z,3.21
2022-10-20T02:19:48.466Z,3.19
2022-10-20T02:22:16.347Z,3.20
2022-10-20T02:24:45.110Z,3.22
2022-10-20T02:27:27.516Z,3.23
2022-10-20T02:30:01.563Z,3.23
2022-10-20T02:32:30.490Z,3.24
2022-10-20T02:34:57.090Z,3.23
2022-10-20T02:37:23.829Z,3.23
2022-10-20T02:39:50.466Z,3.21
2022-10-20T02:42:17.428Z,3.18
2022-10-20T02:44:44.074Z,3.14
2022-10-20T02:47:10.815Z,3.15
2022-10-20T02:49:40.250Z,3.13
2022-10-20T02:52:06.826Z,3.10
2022-10-20T02:54:33.975Z,3.06
2022-10-20T02:57:00.601Z,3.05
2022-10-20T02:59:27.223Z,3.05
2022-10-20T03:01:53.990Z,3.05
2022-10-20T03:04:20.784Z,3.07
2022-10-20T03:06:47.548Z,3.09
2022-10-20T03:09:14.293Z,3.13
2022-10-20T03:11:40.926Z,3.16
2022-10-20T03:14:07.547Z,3.20
2022-10-20T03:16:34.425Z,3.21
2022-10-20T03:19:03.998Z,3.25
2022-10-20T03:21:34.183Z,3.28
2022-10-20T03:24:01.182Z,3.29
2022-10-20T03:26:27.799Z,3.28
2022-10-20T03:28:54.404Z,3.30
2022-10-20T03:31:21.353Z,3.30
2022-10-20T03:33:47.949Z,3.30
2022-10-20T03:36:14.525Z,3.30
2022-10-20T03:38:45.623Z,3.30
2022-10-20T03:41:12.283Z,3.30
2022-10-20T03:43:39.991Z,3.28
2022-10-20T03:46:11.674Z,3.28
2022-10-20T03:48:39.706Z,3.24
2022-10-20T03:51:09.267Z,3.22
2022-10-20T03:53:35.955Z,3.19
2022-10-20T03:56:10.514Z,3.16
2022-10-20T03:58:37.105Z,3.13
2022-10-20T04:01:06.481Z,3.09
2022-10-20T04:03:33.239Z,3.06
2022-10-20T04:05:59.859Z,3.08
2022-10-20T04:08:26.537Z,3.11
2022-10-20T04:10:53.385Z,3.15
2022-10-20T04:13:23.095Z,3.15
2022-10-20T04:15:49.627Z,3.17
2022-10-20T04:18:16.403Z,3.19
2022-10-20T04:20:44.522Z,3.17
2022-10-20T04:23:11.736Z,3.16
2022-10-20T04:25:45.654Z,3.14
2022-10-20T04:28:13.405Z,3.13
2022-10-20T04:30:40.238Z,3.09
2022-10-20T04:33:07.031Z,3.05
2022-10-20T04:35:33.773Z,2.96
2022-10-20T04:38:00.633Z,2.92
2022-10-20T04:40:27.328Z,2.85
2022-10-20T04:42:53.909Z,2.81
2022-10-20T04:45:20.511Z,2.82
2022-10-20T04:47:47.081Z,2.80
2022-10-20T04:50:16.743Z,2.78
2022-10-20T04:52:43.346Z,2.75
2022-10-20T04:55:10.007Z,2.74
2022-10-20T04:57:36.944Z,2.73
2022-10-20T05:00:06.287Z,2.71
2022-10-20T05:02:32.887Z,2.69
2022-10-20T05:04:59.608Z,2.68
2022-10-20T05:07:29.058Z,2.68
2022-10-20T05:09:55.616Z,2.67
2022-10-20T05:12:24.143Z,2.67
2022-10-20T05:14:50.728Z,2.65
2022-10-20T05:17:17.293Z,2.66
2022-10-20T05:19:47.151Z,2.67
2022-10-20T05:22:13.800Z,2.69
2022-10-20T05:24:43.411Z,2.70
2022-10-20T05:27:10.760Z,2.73
2022-10-20T05:29:37.413Z,2.77
2022-10-20T05:32:04.083Z,2.79
2022-10-20T05:34:33.502Z,2.81
2022-10-20T05:37:00.077Z,2.81
2022-10-20T05:39:26.836Z,2.81
2022-10-20T05:41:53.512Z,2.76
2022-10-20T05:44:20.134Z,2.72
2022-10-20T05:46:46.767Z,2.68
2022-10-20T05:49:15.846Z,2.65
2022-10-20T05:51:47.033Z,2.64
2022-10-20T05:54:16.951Z,2.61
2022-10-20T05:56:44.005Z,2.62
2022-10-20T05:59:11.790Z,2.60
2022-10-20T06:01:48.395Z,2.59
2022-10-20T06:04:17.867Z,2.59
2022-10-20T06:06:44.877Z,2.61
2022-10-20T06:09:12.231Z,2.61
2022-10-20T06:11:39.884Z,2.59
2022-10-20T06:14:08.248Z,2.53
2022-10-20T06:16:35.223Z,2.49
2022-10-20T06:19:03.163Z,2.51
2022-10-20T06:21:32.201Z,2.52
2022-10-20T06:24:04.788Z,2.53
2022-10-20T06:26:33.235Z,2.54
2022-10-20T06:29:04.272Z,2.52
2022-10-20T06:31:34.157Z,2.51
2022-10-20T06:34:01.573Z,2.53
2022-10-20T06:36:31.627Z,2.53
2022-10-20T06:39:02.095Z,2.56
2022-10-20T06:41:28.769Z,2.58
2022-10-20T06:43:59.076Z,2.59
2022-10-20T06:46:31.026Z,2.60
2022-10-20T06:49:03.871Z,2.62
2022-10-20T06:51:31.055Z,2.65
2022-10-20T06:53:59.411Z,2.66
2022-10-20T06:56:29.089Z,2.70
2022-10-20T06:58:57.302Z,2.74
2022-10-20T07:01:27.991Z,2.79
2022-10-20T07:03:58.840Z,2.85
2022-10-20T07:06:34.455Z,2.90
2022-10-20T07:09:04.167Z,2.96
2022-10-20T07:11:32.153Z,2.99
2022-10-20T07:14:02.349Z,3.02
2022-10-20T07:16:31.791Z,3.05
2022-10-20T07:18:59.717Z,3.10
2022-10-20T07:21:35.662Z,3.14
2022-10-20T07:24:06.696Z,3.19
2022-10-20T07:26:36.548Z,3.26
2022-10-20T07:29:04.347Z,3.30
2022-10-20T07:31:38.253Z,3.39
2022-10-20T07:34:14.065Z,3.48
2022-10-20T07:36:51.398Z,3.55
2022-10-20T07:39:18.040Z,3.63
2022-10-20T07:41:47.361Z,3.70
2022-10-20T07:44:14.427Z,3.77
2022-10-20T07:46:41.107Z,3.83
2022-10-20T07:51:54.303Z,3.96
2022-10-20T07:54:21.015Z,4.03
2022-10-20T07:56:47.852Z,4.09
2022-10-20T07:59:14.526Z,4.17
2022-10-20T08:01:43.452Z,4.21
2022-10-20T08:04:10.114Z,4.28
2022-10-20T08:06:39.366Z,4.35
2022-10-20T08:09:07.408Z,4.41
2022-10-20T08:11:36.813Z,4.48
2022-10-20T08:14:06.249Z,4.53
2022-10-20T08:16:32.935Z,4.61
2022-10-20T08:19:10.837Z,4.65
2022-10-20T08:21:37.527Z,4.72
2022-10-20T08:24:04.308Z,4.80
2022-10-20T08:26:33.266Z,4.86
2022-10-20T08:28:59.918Z,4.93
2022-10-20T08:31:28.866Z,5.00
2022-10-20T08:33:56.969Z,5.10
2022-10-20T08:36:24.711Z,5.15
2022-10-20T08:38:51.391Z,5.23
2022-10-20T08:41:21.913Z,5.33
2022-10-20T08:43:54.715Z,5.38
2022-10-20T08:46:25.102Z,5.47
2022-10-20T08:48:52.889Z,5.54
2022-10-20T08:51:22.630Z,5.60
2022-10-20T08:53:51.943Z,5.66
2022-10-20T08:56:22.941Z,5.74
2022-10-20T08:58:49.685Z,5.81
2022-10-20T09:01:30.969Z,5.87
2022-10-20T09:04:19.332Z,5.96
2022-10-20T09:06:51.273Z,6.02
2022-10-20T09:09:20.747Z,6.14
2022-10-20T09:11:48.151Z,6.23
2022-10-20T09:14:16.772Z,6.33
2022-10-20T09:16:59.639Z,6.44
2022-10-20T09:19:28.215Z,6.53
2022-10-20T09:22:02.772Z,6.62
2022-10-20T09:24:30.769Z,6.73
2022-10-20T09:27:16.000Z,6.82
2022-10-20T09:29:42.727Z,6.91
2022-10-20T09:32:45.503Z,7.00
2022-10-20T09:35:21.913Z,7.11
2022-10-20T09:37:55.516Z,7.19
2022-10-20T09:40:23.197Z,7.26
2022-10-20T09:42:54.194Z,7.33
2022-10-20T09:45:28.872Z,7.42
2022-10-20T09:48:21.203Z,7.49
2022-10-20T09:50:53.401Z,7.52
2022-10-20T09:53:23.813Z,7.58
2022-10-20T09:55:54.166Z,7.63
2022-10-20T09:58:30.254Z,7.67
2022-10-20T10:01:17.880Z,7.74
2022-10-20T10:03:46.907Z,7.76
2022-10-20T10:06:34.441Z,7.81
2022-10-20T10:09:02.470Z,7.81
2022-10-20T10:11:36.555Z,7.83
2022-10-20T10:14:06.805Z,7.86
2022-10-20T10:16:42.299Z,7.92
2022-10-20T10:19:18.059Z,8.02
2022-10-20T10:21:55.010Z,8.06
2022-10-20T10:24:42.318Z,8.12
2022-10-20T10:27:27.935Z,8.15
2022-10-20T10:30:19.794Z,8.16
2022-10-20T10:32:47.982Z,8.19
2022-10-20T10:35:36.226Z,8.23
2022-10-20T10:38:03.383Z,8.28
2022-10-20T10:40:33.078Z,8.30
2022-10-20T10:43:22.194Z,8.34
2022-10-20T10:45:56.840Z,8.35
2022-10-20T10:49:00.956Z,8.38
2022-10-20T10:52:24.994Z,8.40
2022-10-20T10:55:47.822Z,8.42
2022-10-20T10:58:40.594Z,8.42
2022-10-20T11:01:19.129Z,8.39
2022-10-20T11:04:22.762Z,8.44
2022-10-20T11:07:06.827Z,8.46
2022-10-20T11:09:36.355Z,8.46
2022-10-20T11:12:15.023Z,8.49
2022-10-20T11:15:06.274Z,8.53
2022-10-20T11:17:56.514Z,8.51
2022-10-20T11:20:52.951Z,8.54
2022-10-20T11:23:37.507Z,8.54
2022-10-20T11:26:25.414Z,8.53
2022-10-20T11:28:57.882Z,8.52
2022-10-20T11:31:39.848Z,8.52
2022-10-20T11:34:23.856Z,8.52
2022-10-20T11:37:17.086Z,8.54
2022-10-20T11:39:59.533Z,8.55
2022-10-20T11:42:51.102Z,8.59
2022-10-20T11:45:38.732Z,8.63
2022-10-20T11:48:22.910Z,8.63
2022-10-20T11:51:10.981Z,8.63
2022-10-20T11:54:18.456Z,8.59
2022-10-20T11:56:54.073Z,8.56
2022-10-20T11:59:48.078Z,8.56
2022-10-20T12:02:52.410Z,8.57
2022-10-20T12:05:52.415Z,8.56
2022-10-20T12:08:34.145Z,8.56
2022-10-20T12:11:09.694Z,8.58
2022-10-20T12:13:55.433Z,8.58
2022-10-20T12:16:53.231Z,8.58
2022-10-20T12:19:26.989Z,8.59
2022-10-20T12:21:58.615Z,8.58
2022-10-20T12:24:38.612Z,8.58
2022-10-20T12:27:08.238Z,8.58
2022-10-20T12:29:34.757Z,8.58
2022-10-20T12:32:26.002Z,8.57
2022-10-20T12:35:22.808Z,8.56
2022-10-20T12:37:58.091Z,8.56
2022-10-20T12:40:28.267Z,8.56
2022-10-20T12:42:56.152Z,8.54
2022-10-20T12:45:33.888Z,8.53
2022-10-20T12:48:02.911Z,8.54
2022-10-20T12:50:41.189Z,8.56
2022-10-20T12:53:19.175Z,8.54
2022-10-20T12:55:56.075Z,8.55
2022-10-20T12:58:22.632Z,8.57
2022-10-20T13:00:52.165Z,8.56
2022-10-20T13:03:47.884Z,8.58
2022-10-20T13:06:23.453Z,8.58
2022-10-20T13:09:21.263Z,8.57
2022-10-20T13:12:04.520Z,8.54
2022-10-20T13:14:54.892Z,8.55
2022-10-20T13:17:41.342Z,8.54
2022-10-20T13:20:28.272Z,8.54
2022-10-20T13:22:56.271Z,8.54
2022-10-20T13:25:34.427Z,8.53
2022-10-20T13:28:05.633Z,8.52
2022-10-20T13:30:35.387Z,8.49
2022-10-20T13:34:02.042Z,8.48
2022-10-20T13:36:39.644Z,8.48
2022-10-20T13:39:38.891Z,8.48
2022-10-20T13:42:26.335Z,8.48
2022-10-20T13:45:08.210Z,8.46
2022-10-20T13:47:45.482Z,8.42
2022-10-20T13:50:22.902Z,8.42
2022-10-20T13:52:57.822Z,8.39
2022-10-20T13:55:28.442Z,8.40
2022-10-20T13:58:06.729Z,8.37
2022-10-20T14:00:36.181Z,8.35
2022-10-20T14:03:17.403Z,8.36
2022-10-20T14:05:43.991Z,8.37
2022-10-20T14:08:14.122Z,8.38
2022-10-20T14:10:57.055Z,8.39
2022-10-20T14:13:28.789Z,8.40
2022-10-20T14:15:57.763Z,8.39
2022-10-20T14:18:35.556Z,8.39
2022-10-20T14:21:08.551Z,8.39
2022-10-20T14:23:38.431Z,8.38
2022-10-20T14:26:07.720Z,8.33
2022-10-20T14:28:36.505Z,8.32
2022-10-20T14:31:03.526Z,8.29
2022-10-20T14:33:30.952Z,8.28
2022-10-20T14:35:59.633Z,8.28
2022-10-20T14:38:33.307Z,8.25
2022-10-20T14:41:00.254Z,8.23
2022-10-20T14:43:26.853Z,8.20
2022-10-20T14:45:56.521Z,8.16
2022-10-20T14:48:25.394Z,8.13
2022-10-20T14:50:54.017Z,8.11
2022-10-20T14:53:25.245Z,8.06
2022-10-20T14:55:52.040Z,8.01
2022-10-20T14:58:39.135Z,7.99
2022-10-20T15:01:29.108Z,7.97
2022-10-20T15:04:10.974Z,7.93
2022-10-20T15:06:37.691Z,7.89
2022-10-20T15:09:04.454Z,7.86
2022-10-20T15:11:32.340Z,7.82
2022-10-20T15:14:00.337Z,7.78
2022-10-20T15:16:39.960Z,7.74
2022-10-20T15:19:34.612Z,7.68
2022-10-20T15:24:44.706Z,7.62
2022-10-20T15:27:15.935Z,7.58
2022-10-20T15:29:51.759Z,7.55
2022-10-20T15:32:18.652Z,7.51
2022-10-20T15:34:45.364Z,7.48
2022-10-20T15:37:11.960Z,7.44
2022-10-20T15:39:38.686Z,7.39
2022-10-20T15:42:11.105Z,7.33
2022-10-20T15:44:38.197Z,7.30
2022-10-20T15:47:04.989Z,7.25
2022-10-20T15:49:31.734Z,7.21
2022-10-20T15:51:58.333Z,7.16
2022-10-20T15:54:25.059Z,7.11
2022-10-20T15:56:51.683Z,7.07
2022-10-20T15:59:18.367Z,7.03
2022-10-20T16:01:45.048Z,7.00
2022-10-20T16:04:22.382Z,6.95
2022-10-20T16:06:52.466Z,6.92
2022-10-20T16:09:23.631Z,6.90
2022-10-20T16:11:50.349Z,6.84
2022-10-20T16:14:16.974Z,6.79
2022-10-20T16:16:47.077Z,6.71
2022-10-20T16:19:13.874Z,6.62
2022-10-20T16:21:41.394Z,6.57
2022-10-20T16:24:08.085Z,6.54
2022-10-20T16:26:34.696Z,6.50
2022-10-20T16:29:01.292Z,6.47
2022-10-20T16:31:29.390Z,6.45
2022-10-20T16:33:58.920Z,6.43
2022-10-20T16:36:45.839Z,6.37
2022-10-20T16:39:13.732Z,6.32
2022-10-20T16:41:40.348Z,6.26
2022-10-20T16:44:06.931Z,6.22
2022-10-20T16:46:33.505Z,6.22
2022-10-20T16:49:29.755Z,6.24
2022-10-20T16:52:02.750Z,6.24
2022-10-20T16:54:29.623Z,6.22
2022-10-20T16:56:56.371Z,6.15
2022-10-20T16:59:23.091Z,6.12
2022-10-20T17:01:49.865Z,6.09
2022-10-20T17:04:16.493Z,6.05
2022-10-20T17:06:43.150Z,6.02
2022-10-20T17:09:09.851Z,5.98
2022-10-20T17:11:36.560Z,5.91
2022-10-20T17:14:03.600Z,5.88
2022-10-20T17:16:33.067Z,5.86
2022-10-20T17:19:02.135Z,5.79
2022-10-20T17:21:30.354Z,5.66
2022-10-20T17:23:57.310Z,5.60
2022-10-20T17:26:25.713Z,5.57
2022-10-20T17:28:56.569Z,5.51
2022-10-20T17:31:23.689Z,5.50
2022-10-20T17:33:51.537Z,5.46
2022-10-20T17:36:19.750Z,5.41
2022-10-20T17:38:46.603Z,5.40
2022-10-20T17:41:15.461Z,5.41
2022-10-20T17:43:42.255Z,5.41
2022-10-20T17:46:12.762Z,5.40
2022-10-20T17:48:39.453Z,5.38
2022-10-20T17:51:12.461Z,5.30
2022-10-20T17:53:41.387Z,5.20
2022-10-20T17:56:11.557Z,5.16
2022-10-20T17:58:38.900Z,5.15
2022-10-20T18:01:13.125Z,5.14
2022-10-20T18:03:40.950Z,5.14
2022-10-20T18:06:18.777Z,5.11
2022-10-20T18:08:46.028Z,5.04
2022-10-20T18:11:18.062Z,4.99
2022-10-20T18:13:45.451Z,4.93
2022-10-20T18:16:17.602Z,4.89
2022-10-20T18:18:44.803Z,4.82
2022-10-20T18:21:16.650Z,4.80
2022-10-20T18:23:45.762Z,4.75
2022-10-20T18:26:17.430Z,4.74
2022-10-20T18:28:48.187Z,4.75
2022-10-20T18:31:22.361Z,4.76
2022-10-20T18:33:50.985Z,4.77
2022-10-20T18:36:19.083Z,4.75
2022-10-20T18:38:46.839Z,4.71
2022-10-20T18:41:19.513Z,4.68
2022-10-20T18:43:47.079Z,4.66
2022-10-20T18:46:14.811Z,4.68
2022-10-20T18:48:42.397Z,4.66
2022-10-20T18:51:11.003Z,4.67
2022-10-20T18:56:07.090Z,4.58
2022-10-20T18:58:38.359Z,4.53
2022-10-20T19:01:10.688Z,4.48
2022-10-20T19:03:38.963Z,4.43
2022-10-20T19:06:12.253Z,4.37
2022-10-20T19:08:40.193Z,4.37
2022-10-20T19:11:09.721Z,4.32
2022-10-20T19:13:36.343Z,4.29
2022-10-20T19:16:09.303Z,4.26
2022-10-20T19:18:36.035Z,4.21
2022-10-20T19:21:06.173Z,4.18
2022-10-20T19:23:35.274Z,4.16
2022-10-20T19:26:15.715Z,4.14
2022-10-20T19:28:46.482Z,4.11
2022-10-20T19:31:21.290Z,4.11
2022-10-20T19:33:51.259Z,4.10
2022-10-20T19:36:19.345Z,4.11
2022-10-20T19:38:46.633Z,4.13
2022-10-20T19:41:13.698Z,4.12
2022-10-20T19:43:40.406Z,4.12
2022-10-20T19:46:08.795Z,4.11
2022-10-20T19:48:35.936Z,4.08
2022-10-20T19:51:03.633Z,4.05
2022-10-20T19:53:30.574Z,4.03
2022-10-20T19:55:57.295Z,4.00
2022-10-20T19:58:23.983Z,4.00
2022-10-20T20:00:53.541Z,3.99
2022-10-20T20:03:22.057Z,3.98
2022-10-20T20:05:48.754Z,3.95
2022-10-20T20:08:15.379Z,3.90
2022-10-20T20:10:50.475Z,3.88
2022-10-20T20:13:17.047Z,3.86
2022-10-20T20:15:43.644Z,3.84
2022-10-20T20:18:12.145Z,3.84
2022-10-20T20:20:49.033Z,3.85
2022-10-20T20:23:26.008Z,3.85
2022-10-20T20:26:03.968Z,3.87
2022-10-20T20:28:31.388Z,3.91
2022-10-20T20:31:09.778Z,3.92
2022-10-20T20:33:36.586Z,3.95
2022-10-20T20:36:06.432Z,4.00
2022-10-20T20:38:36.302Z,4.03
2022-10-20T20:41:07.025Z,4.06
2022-10-20T20:43:35.187Z,4.08
2022-10-20T20:46:06.334Z,4.11
2022-10-20T20:48:34.836Z,4.13
2022-10-20T20:51:01.487Z,4.15
2022-10-20T20:53:28.137Z,4.18
2022-10-20T20:55:57.114Z,4.22
2022-10-20T20:58:24.575Z,4.27
2022-10-20T21:00:52.368Z,4.31
2022-10-20T21:03:19.420Z,4.33
2022-10-20T21:05:46.048Z,4.38
2022-10-20T21:08:12.931Z,4.42
2022-10-20T21:10:39.546Z,4.46
2022-10-20T21:13:06.186Z,4.50
2022-10-20T21:15:32.806Z,4.53
2022-10-20T21:17:59.408Z,4.55
2022-10-20T21:20:25.990Z,4.58
2022-10-20T21:22:52.746Z,4.59
2022-10-20T21:25:19.733Z,4.63
2022-10-20T21:27:46.339Z,4.67
2022-10-20T21:30:12.930Z,4.69
2022-10-20T21:32:39.910Z,4.72
2022-10-20T21:35:07.049Z,4.75
2022-10-20T21:37:33.661Z,4.79
2022-10-20T21:40:00.286Z,4.82
2022-10-20T21:42:26.910Z,4.85
2022-10-20T21:44:53.525Z,4.88
2022-10-20T21:47:20.103Z,4.92
2022-10-20T21:49:46.739Z,4.93
2022-10-20T21:52:13.331Z,4.92
2022-10-20T21:54:39.968Z,4.94
2022-10-20T21:57:06.559Z,4.95
2022-10-20T21:59:33.130Z,4.96
2022-10-20T22:02:01.574Z,4.94
2022-10-20T22:04:30.383Z,4.94
2022-10-20T22:06:57.206Z,4.92
2022-10-20T22:09:24.169Z,4.86
2022-10-20T22:11:55.211Z,4.84
2022-10-20T22:14:22.421Z,4.83
2022-10-20T22:16:49.142Z,4.85
2022-10-20T22:19:19.605Z,4.89
2022-10-20T22:21:47.817Z,4.94
2022-10-20T22:24:15.283Z,4.93
2022-10-20T22:26:42.504Z,4.90
2022-10-20T22:29:10.025Z,4.89
2022-10-20T22:31:38.675Z,4.86
2022-10-20T22:34:06.360Z,4.85
2022-10-20T22:36:33.205Z,4.90
2022-10-20T22:38:59.946Z,4.94
2022-10-20T22:41:26.668Z,4.99
2022-10-20T22:43:53.324Z,5.04
2022-10-20T22:46:20.072Z,5.10
2022-10-20T22:48:46.773Z,5.16
2022-10-20T22:51:14.207Z,5.21
2022-10-20T22:53:41.369Z,5.26
2022-10-20T22:56:11.148Z,5.29
2022-10-20T22:58:46.806Z,5.31
2022-10-20T23:01:20.281Z,5.34
2022-10-20T23:03:47.623Z,5.36
2022-10-20T23:06:17.621Z,5.38
2022-10-20T23:08:49.033Z,5.39
2022-10-20T23:11:16.501Z,5.40
2022-10-20T23:13:45.953Z,5.40
2022-10-20T23:16:16.242Z,5.41
2022-10-20T23:18:43.112Z,5.43
2022-10-20T23:21:10.056Z,5.46
2022-10-20T23:23:39.443Z,5.49
2022-10-20T23:26:07.527Z,5.50
2022-10-20T23:28:36.574Z,5.51
2022-10-20T23:31:08.382Z,5.53
2022-10-20T23:33:35.557Z,5.55
2022-10-20T23:36:02.290Z,5.59
2022-10-20T23:38:29.214Z,5.62
2022-10-20T23:41:01.695Z,5.64
2022-10-20T23:43:32.980Z,5.65
2022-10-20T23:46:00.139Z,5.68
2022-10-20T23:48:27.433Z,5.70
2022-10-20T23:50:54.125Z,5.73
2022-10-20T23:53:20.789Z,5.76
2022-10-20T23:55:47.416Z,5.78
2022-10-20T23:58:14.097Z,5.79
